createdAt,value
2018-01-30T00:01:29.664Z,89.86
2018-01-30T00:03:57.088Z,89.69
2018-01-30T00:06:24.502Z,89.23
2018-01-30T00:08:51.898Z,89.13
2018-01-30T00:11:19.290Z,88.99
2018-01-30T00:13:46.673Z,88.65
2018-01-30T00:16:14.070Z,88.79
2018-01-30T00:18:41.486Z,88.78
2018-01-30T00:21:08.907Z,88.76
2018-01-30T00:23:36.313Z,88.73
2018-01-30T00:26:03.738Z,88.38
2018-01-30T00:28:31.162Z,88.25
2018-01-30T00:30:58.549Z,87.94
2018-01-30T00:33:25.965Z,88.43
2018-01-30T00:35:53.359Z,88.81
2018-01-30T00:38:20.778Z,88.98
2018-01-30T00:40:48.186Z,88.92
2018-01-30T00:43:16.421Z,88.50
2018-01-30T00:45:43.816Z,88.34
2018-01-30T00:48:11.215Z,88.07
2018-01-30T00:50:38.603Z,88.64
2018-01-30T00:53:06.022Z,88.91
2018-01-30T00:55:33.463Z,89.09
2018-01-30T00:58:00.858Z,89.39
2018-01-30T01:00:28.252Z,89.35
2018-01-30T01:02:55.658Z,89.29
2018-01-30T01:05:23.073Z,88.98
2018-01-30T01:07:50.536Z,88.48
2018-01-30T01:10:17.914Z,87.96
2018-01-30T01:12:45.313Z,87.44
2018-01-30T01:15:12.698Z,86.84
2018-01-30T01:17:40.103Z,85.11
2018-01-30T01:20:07.482Z,84.89
2018-01-30T01:22:34.878Z,84.15
2018-01-30T01:25:02.266Z,85.87
2018-01-30T01:27:29.678Z,86.64
2018-01-30T01:29:57.070Z,87.27
2018-01-30T01:32:24.468Z,88.56
2018-01-30T01:34:51.850Z,88.70
2018-01-30T01:37:19.246Z,88.12
2018-01-30T01:39:46.641Z,88.57
2018-01-30T01:42:14.031Z,89.10
2018-01-30T01:44:41.414Z,89.07
2018-01-30T01:47:08.806Z,89.50
2018-01-30T01:49:36.227Z,89.92
2018-01-30T01:52:04.514Z,90.79
2018-01-30T01:54:31.931Z,91.16
2018-01-30T01:57:00.213Z,91.12
2018-01-30T01:59:27.658Z,91.04
2018-01-30T02:01:55.058Z,91.55
2018-01-30T02:04:22.466Z,91.88
2018-01-30T02:06:49.859Z,92.03
2018-01-30T02:09:17.257Z,91.94
2018-01-30T02:11:44.642Z,91.35
2018-01-30T02:14:12.065Z,91.45
2018-01-30T02:16:39.462Z,91.60
2018-01-30T02:19:06.878Z,91.44
2018-01-30T02:21:34.286Z,90.96
2018-01-30T02:24:01.678Z,90.58
2018-01-30T02:26:29.065Z,90.56
2018-01-30T02:28:56.463Z,90.46
2018-01-30T02:31:23.855Z,90.23
2018-01-30T02:33:51.259Z,90.06
2018-01-30T02:36:18.646Z,89.63
2018-01-30T02:38:46.034Z,88.95
2018-01-30T02:41:13.425Z,89.04
2018-01-30T02:43:40.833Z,89.30
2018-01-30T02:46:08.306Z,89.02
2018-01-30T02:48:35.707Z,89.54
2018-01-30T02:51:03.111Z,89.60
2018-01-30T02:53:30.522Z,89.74
2018-01-30T02:55:57.914Z,89.63
2018-01-30T02:58:25.382Z,89.78
2018-01-30T03:00:52.774Z,89.57
2018-01-30T03:03:20.173Z,89.57
2018-01-30T03:05:47.561Z,89.20
2018-01-30T03:08:14.955Z,89.09
2018-01-30T03:10:42.361Z,89.40
2018-01-30T03:13:09.857Z,89.64
2018-01-30T03:15:37.254Z,89.35
2018-01-30T03:18:04.655Z,89.43
2018-01-30T03:20:32.046Z,89.28
2018-01-30T03:22:59.450Z,89.20
2018-01-30T03:25:26.838Z,89.38
2018-01-30T03:27:54.259Z,89.21
2018-01-30T03:30:21.650Z,89.37
2018-01-30T03:32:49.054Z,89.42
2018-01-30T03:35:16.446Z,89.33
2018-01-30T03:37:43.849Z,89.81
2018-01-30T03:40:11.334Z,89.95
2018-01-30T03:42:38.750Z,90.35
2018-01-30T03:45:06.142Z,90.50
2018-01-30T03:47:33.540Z,90.47
2018-01-30T03:50:00.932Z,90.40
2018-01-30T03:52:28.355Z,90.21
2018-01-30T03:54:55.740Z,90.28
2018-01-30T03:57:23.150Z,89.87
2018-01-30T03:59:50.556Z,89.79
2018-01-30T04:02:17.951Z,89.88
2018-01-30T04:04:45.358Z,89.96
2018-01-30T04:07:12.751Z,89.83
2018-01-30T04:09:40.154Z,89.96
2018-01-30T04:12:07.544Z,90.17
2018-01-30T04:14:34.930Z,89.78
2018-01-30T04:17:02.327Z,89.52
2018-01-30T04:19:29.823Z,89.53
2018-01-30T04:21:57.202Z,89.91
2018-01-30T04:24:24.606Z,89.86
2018-01-30T04:26:51.995Z,89.62
2018-01-30T04:29:19.397Z,90.16
2018-01-30T04:31:46.890Z,90.08
2018-01-30T04:34:14.286Z,90.10
2018-01-30T04:36:41.704Z,89.98
2018-01-30T04:39:09.094Z,89.66
2018-01-30T04:41:36.489Z,90.15
2018-01-30T04:44:03.887Z,89.80
2018-01-30T04:46:31.280Z,90.02
2018-01-30T04:48:58.687Z,90.40
2018-01-30T04:51:26.110Z,89.79
2018-01-30T04:53:53.623Z,89.24
2018-01-30T04:56:21.066Z,89.53
2018-01-30T04:58:48.491Z,89.38
2018-01-30T05:01:15.861Z,88.83
2018-01-30T05:03:43.257Z,89.17
2018-01-30T05:06:10.674Z,89.42
2018-01-30T05:08:38.064Z,89.60
2018-01-30T05:11:05.473Z,89.42
2018-01-30T05:13:32.858Z,89.82
2018-01-30T05:16:00.359Z,89.34
2018-01-30T05:18:27.751Z,89.58
2018-01-30T05:20:55.146Z,89.75
2018-01-30T05:23:22.555Z,89.79
2018-01-30T05:25:49.944Z,90.34
2018-01-30T05:28:17.330Z,90.63
2018-01-30T05:30:44.738Z,90.10
2018-01-30T05:33:12.158Z,89.82
2018-01-30T05:35:39.550Z,89.95
2018-01-30T05:38:07.083Z,89.76
2018-01-30T05:40:34.506Z,89.84
2018-01-30T05:43:01.906Z,89.91
2018-01-30T05:45:29.298Z,89.99
2018-01-30T05:47:56.709Z,90.64
2018-01-30T05:50:24.094Z,90.31
2018-01-30T05:52:51.510Z,90.90
2018-01-30T05:55:18.890Z,91.16
2018-01-30T05:57:46.283Z,91.11
2018-01-30T06:00:13.757Z,90.67
2018-01-30T06:02:41.296Z,90.40
2018-01-30T06:05:08.695Z,90.59
2018-01-30T06:07:36.082Z,90.75
2018-01-30T06:10:03.519Z,90.76
2018-01-30T06:12:30.926Z,90.43
2018-01-30T06:14:58.309Z,90.07
2018-01-30T06:17:25.743Z,90.24
2018-01-30T06:19:53.169Z,90.43
2018-01-30T06:22:20.560Z,90.46
2018-01-30T06:24:47.973Z,90.20
2018-01-30T06:27:15.384Z,89.74
2018-01-30T06:29:42.781Z,89.50
2018-01-30T06:32:10.174Z,90.31
2018-01-30T06:34:37.568Z,90.22
2018-01-30T06:37:04.953Z,89.95
2018-01-30T06:39:32.357Z,90.12
2018-01-30T06:41:59.742Z,90.11
2018-01-30T06:44:27.130Z,89.75
2018-01-30T06:46:54.538Z,89.82
2018-01-30T06:49:21.933Z,89.88
2018-01-30T06:51:49.429Z,89.95
2018-01-30T06:54:16.879Z,90.57
2018-01-30T06:56:44.262Z,90.45
2018-01-30T06:59:11.658Z,90.60
2018-01-30T07:01:39.057Z,90.74
2018-01-30T07:04:06.480Z,90.44
2018-01-30T07:06:33.858Z,90.89
2018-01-30T07:09:01.255Z,90.42
2018-01-30T07:11:28.638Z,89.73
2018-01-30T07:13:57.218Z,89.61
2018-01-30T07:16:24.614Z,88.95
2018-01-30T07:18:52.018Z,89.07
2018-01-30T07:21:19.506Z,88.89
2018-01-30T07:23:46.903Z,88.74
2018-01-30T07:26:14.294Z,88.71
2018-01-30T07:28:41.708Z,88.80
2018-01-30T07:31:09.098Z,89.55
2018-01-30T07:33:36.507Z,89.41
2018-01-30T07:36:03.902Z,89.63
2018-01-30T07:38:31.319Z,89.96
2018-01-30T07:40:58.690Z,90.13
2018-01-30T07:43:26.106Z,90.52
2018-01-30T07:45:53.530Z,90.38
2018-01-30T07:48:20.995Z,89.96
2018-01-30T07:50:48.403Z,89.62
2018-01-30T07:53:15.794Z,89.80
2018-01-30T07:55:43.190Z,90.49
2018-01-30T07:58:10.576Z,90.03
2018-01-30T08:00:37.974Z,89.83
2018-01-30T08:03:05.386Z,89.67
2018-01-30T08:05:32.787Z,89.38
2018-01-30T08:08:00.251Z,89.28
2018-01-30T08:10:28.551Z,90.07
2018-01-30T08:12:55.950Z,90.07
2018-01-30T08:15:23.433Z,90.13
2018-01-30T08:17:50.917Z,90.04
2018-01-30T08:20:18.321Z,89.47
2018-01-30T08:22:45.719Z,89.52
2018-01-30T08:25:13.106Z,89.11
2018-01-30T08:27:40.514Z,89.25
2018-01-30T08:30:07.916Z,89.33
2018-01-30T08:32:35.317Z,89.47
2018-01-30T08:35:02.774Z,89.27
2018-01-30T08:37:30.162Z,89.15
2018-01-30T08:39:58.548Z,89.13
2018-01-30T08:42:25.934Z,88.93
2018-01-30T08:44:53.398Z,89.12
2018-01-30T08:47:20.878Z,89.07
2018-01-30T08:49:48.325Z,89.04
2018-01-30T08:52:15.718Z,88.57
2018-01-30T08:54:43.117Z,88.03
2018-01-30T08:57:10.507Z,87.55
2018-01-30T08:59:37.922Z,87.79
2018-01-30T09:02:05.335Z,87.78
2018-01-30T09:04:32.723Z,88.05
2018-01-30T09:07:00.114Z,87.75
2018-01-30T09:09:27.524Z,87.49
2018-01-30T09:11:54.913Z,87.60
2018-01-30T09:14:22.314Z,87.30
2018-01-30T09:16:49.719Z,86.94
2018-01-30T09:19:17.138Z,86.90
2018-01-30T09:21:44.551Z,87.40
2018-01-30T09:24:11.955Z,87.44
2018-01-30T09:26:39.345Z,87.43
2018-01-30T09:29:06.768Z,87.05
2018-01-30T09:31:34.155Z,87.28
2018-01-30T09:34:01.571Z,87.27
2018-01-30T09:36:28.991Z,87.45
2018-01-30T09:38:56.386Z,86.92
2018-01-30T09:41:23.777Z,87.05
2018-01-30T09:43:51.169Z,86.28
2018-01-30T09:46:18.564Z,85.49
2018-01-30T09:48:45.953Z,84.01
2018-01-30T09:51:13.362Z,83.87
2018-01-30T09:53:40.754Z,83.98
2018-01-30T09:56:08.155Z,82.93
2018-01-30T09:58:35.546Z,83.10
2018-01-30T10:01:02.954Z,82.84
2018-01-30T10:03:30.372Z,83.24
2018-01-30T10:05:57.745Z,82.70
2018-01-30T10:08:25.135Z,83.45
2018-01-30T10:10:52.559Z,83.55
2018-01-30T10:13:19.938Z,83.49
2018-01-30T10:15:47.330Z,83.07
2018-01-30T10:18:14.736Z,83.99
2018-01-30T10:20:42.149Z,82.84
2018-01-30T10:23:09.542Z,82.71
2018-01-30T10:25:36.940Z,82.50
2018-01-30T10:28:04.323Z,82.79
2018-01-30T10:30:31.727Z,83.02
2018-01-30T10:32:59.121Z,83.04
2018-01-30T10:35:26.606Z,83.74
2018-01-30T10:37:54.079Z,82.27
2018-01-30T10:40:21.486Z,82.14
2018-01-30T10:42:48.898Z,82.18
2018-01-30T10:45:16.284Z,81.67
2018-01-30T10:47:43.679Z,81.09
2018-01-30T10:50:11.091Z,81.33
2018-01-30T10:52:38.481Z,82.40
2018-01-30T10:55:05.882Z,82.68
2018-01-30T10:57:33.302Z,82.50
2018-01-30T11:00:00.767Z,81.86
2018-01-30T11:02:28.176Z,81.37
2018-01-30T11:04:55.603Z,81.07
2018-01-30T11:07:22.954Z,80.37
2018-01-30T11:09:50.350Z,79.82
2018-01-30T11:12:17.741Z,79.30
2018-01-30T11:14:45.186Z,79.33
2018-01-30T11:17:12.583Z,78.14
2018-01-30T11:19:39.966Z,78.08
2018-01-30T11:22:07.387Z,79.71
2018-01-30T11:24:34.772Z,79.28
2018-01-30T11:27:02.177Z,78.89
2018-01-30T11:29:29.573Z,78.91
2018-01-30T11:31:56.954Z,79.19
2018-01-30T11:34:24.435Z,78.82
2018-01-30T11:36:51.827Z,78.23
2018-01-30T11:39:19.239Z,78.77
2018-01-30T11:41:46.638Z,78.44
2018-01-30T11:44:14.022Z,78.16
2018-01-30T11:46:41.515Z,77.30
2018-01-30T11:49:08.906Z,76.23
2018-01-30T11:51:36.298Z,77.08
2018-01-30T11:54:03.678Z,77.31
2018-01-30T11:56:31.079Z,77.57
2018-01-30T11:58:58.481Z,77.64
2018-01-30T12:01:25.876Z,77.37
2018-01-30T12:03:53.262Z,76.87
2018-01-30T12:06:20.661Z,76.66
2018-01-30T12:08:48.041Z,75.76
2018-01-30T12:11:15.442Z,74.57
2018-01-30T12:13:42.832Z,74.72
2018-01-30T12:16:10.231Z,75.22
2018-01-30T12:18:37.630Z,75.93
2018-01-30T12:21:05.041Z,75.10
2018-01-30T12:23:32.422Z,74.32
2018-01-30T12:25:59.818Z,75.51
2018-01-30T12:28:27.201Z,74.71
2018-01-30T12:30:54.685Z,74.45
2018-01-30T12:33:22.053Z,73.95
2018-01-30T12:35:49.446Z,73.43
2018-01-30T12:38:16.862Z,74.78
2018-01-30T12:40:44.258Z,73.38
2018-01-30T12:43:11.653Z,72.26
2018-01-30T12:45:39.046Z,72.14
2018-01-30T12:48:06.438Z,73.60
2018-01-30T12:50:33.971Z,72.68
2018-01-30T12:53:01.431Z,72.83
2018-01-30T12:55:28.823Z,72.31
2018-01-30T12:57:56.230Z,72.71
2018-01-30T13:00:23.635Z,72.79
2018-01-30T13:02:51.024Z,73.46
2018-01-30T13:05:18.425Z,72.17
2018-01-30T13:07:45.819Z,71.33
2018-01-30T13:10:13.222Z,71.59
2018-01-30T13:12:40.614Z,71.00
2018-01-30T13:15:08.014Z,70.54
2018-01-30T13:17:35.402Z,70.03
2018-01-30T13:20:02.803Z,69.07
2018-01-30T13:22:30.210Z,69.04
2018-01-30T13:24:57.648Z,70.45
2018-01-30T13:27:25.199Z,69.17
2018-01-30T13:29:52.586Z,67.66
2018-01-30T13:32:19.987Z,67.95
2018-01-30T13:34:47.374Z,69.52
2018-01-30T13:37:14.787Z,70.43
2018-01-30T13:39:42.171Z,70.28
2018-01-30T13:42:09.574Z,70.57
2018-01-30T13:44:36.962Z,68.80
2018-01-30T13:47:04.361Z,66.73
2018-01-30T13:49:31.883Z,66.84
2018-01-30T13:51:59.274Z,66.73
2018-01-30T13:54:26.710Z,66.50
2018-01-30T13:56:54.116Z,65.61
2018-01-30T13:59:21.527Z,66.37
2018-01-30T14:01:48.919Z,66.60
2018-01-30T14:04:16.362Z,66.25
2018-01-30T14:06:43.776Z,66.16
2018-01-30T14:09:11.226Z,66.13
2018-01-30T14:11:38.645Z,67.19
2018-01-30T14:14:06.026Z,67.63
2018-01-30T14:16:33.426Z,68.33
2018-01-30T14:19:00.880Z,67.97
2018-01-30T14:21:28.245Z,69.24
2018-01-30T14:23:55.630Z,69.88
2018-01-30T14:26:23.043Z,69.66
2018-01-30T14:28:50.436Z,69.41
2018-01-30T14:31:17.838Z,69.18
2018-01-30T14:33:45.235Z,70.27
2018-01-30T14:36:12.630Z,69.97
2018-01-30T14:38:40.018Z,70.26
2018-01-30T14:41:07.418Z,69.91
2018-01-30T14:43:34.810Z,69.68
2018-01-30T14:46:02.207Z,70.08
2018-01-30T14:48:29.609Z,72.12
2018-01-30T14:50:57.025Z,71.25
2018-01-30T14:53:24.506Z,71.13
2018-01-30T14:55:51.897Z,70.48
2018-01-30T14:58:19.291Z,70.81
2018-01-30T15:00:46.685Z,70.74
2018-01-30T15:03:14.074Z,69.57
2018-01-30T15:05:41.477Z,70.24
2018-01-30T15:08:09.040Z,70.68
2018-01-30T15:10:36.433Z,70.37
2018-01-30T15:13:03.820Z,70.86
2018-01-30T15:15:31.197Z,71.28
2018-01-30T15:17:58.619Z,71.40
2018-01-30T15:20:26.071Z,71.51
2018-01-30T15:22:53.585Z,72.43
2018-01-30T15:25:20.986Z,72.59
2018-01-30T15:27:48.400Z,72.45
2018-01-30T15:30:15.835Z,72.42
2018-01-30T15:32:43.324Z,72.15
2018-01-30T15:35:10.747Z,72.31
2018-01-30T15:37:38.138Z,72.07
2018-01-30T15:40:05.534Z,71.72
2018-01-30T15:42:32.932Z,72.90
2018-01-30T15:45:00.436Z,73.01
2018-01-30T15:47:27.826Z,72.66
2018-01-30T15:49:55.235Z,73.19
2018-01-30T15:52:22.650Z,73.02
2018-01-30T15:54:50.021Z,72.91
2018-01-30T15:57:17.450Z,72.35
2018-01-30T15:59:44.843Z,72.92
2018-01-30T16:02:12.308Z,72.95
2018-01-30T16:04:39.712Z,73.34
2018-01-30T16:07:07.108Z,72.12
2018-01-30T16:09:34.567Z,71.75
2018-01-30T16:12:01.975Z,71.23
2018-01-30T16:14:29.409Z,70.61
2018-01-30T16:16:56.819Z,71.30
2018-01-30T16:19:24.210Z,71.36
2018-01-30T16:21:51.615Z,70.72
2018-01-30T16:24:18.997Z,71.09
2018-01-30T16:26:46.388Z,71.83
2018-01-30T16:29:13.778Z,71.30
2018-01-30T16:31:41.183Z,71.00
2018-01-30T16:34:08.576Z,71.17
2018-01-30T16:36:35.965Z,70.61
2018-01-30T16:39:03.366Z,70.54
2018-01-30T16:41:30.785Z,70.23
2018-01-30T16:43:58.178Z,70.01
2018-01-30T16:46:25.719Z,70.42
2018-01-30T16:48:53.127Z,71.32
2018-01-30T16:51:20.522Z,71.66
2018-01-30T16:53:47.915Z,71.33
2018-01-30T16:56:15.310Z,71.27
2018-01-30T16:58:42.738Z,70.96
2018-01-30T17:01:10.145Z,71.55
2018-01-30T17:03:37.541Z,71.62
2018-01-30T17:06:04.944Z,72.13
2018-01-30T17:08:32.487Z,72.16
2018-01-30T17:10:59.956Z,72.05
2018-01-30T17:13:27.357Z,72.76
2018-01-30T17:15:54.754Z,72.25
2018-01-30T17:18:22.146Z,71.86
2018-01-30T17:20:49.538Z,71.49
2018-01-30T17:23:16.947Z,71.66
2018-01-30T17:25:44.345Z,71.73
2018-01-30T17:28:11.734Z,72.10
2018-01-30T17:30:39.126Z,71.85
2018-01-30T17:33:06.554Z,71.72
2018-01-30T17:35:33.941Z,72.35
2018-01-30T17:38:01.350Z,72.21
2018-01-30T17:40:28.725Z,72.56
2018-01-30T17:42:56.122Z,72.40
2018-01-30T17:45:23.537Z,72.94
2018-01-30T17:47:50.947Z,72.54
2018-01-30T17:50:18.351Z,72.07
2018-01-30T17:52:45.779Z,71.70
2018-01-30T17:55:13.202Z,72.10
2018-01-30T17:57:40.608Z,72.23
2018-01-30T18:00:07.999Z,72.02
2018-01-30T18:02:35.424Z,72.15
2018-01-30T18:05:02.857Z,71.65
2018-01-30T18:07:30.242Z,71.48
2018-01-30T18:09:57.654Z,71.57
2018-01-30T18:12:25.055Z,71.59
2018-01-30T18:14:52.474Z,72.60
2018-01-30T18:17:19.879Z,73.42
2018-01-30T18:19:47.387Z,72.94
2018-01-30T18:22:14.782Z,73.58
2018-01-30T18:24:42.174Z,74.07
2018-01-30T18:27:09.571Z,74.59
2018-01-30T18:29:36.976Z,74.79
2018-01-30T18:32:04.390Z,74.91
2018-01-30T18:34:31.775Z,75.08
2018-01-30T18:36:59.198Z,74.58
2018-01-30T18:39:26.653Z,74.29
2018-01-30T18:41:54.112Z,73.78
2018-01-30T18:44:21.567Z,73.94
2018-01-30T18:46:48.950Z,73.72
2018-01-30T18:49:16.438Z,73.72
2018-01-30T18:51:43.898Z,73.88
2018-01-30T18:54:11.299Z,74.81
2018-01-30T18:56:38.730Z,75.81
2018-01-30T18:59:06.138Z,75.41
2018-01-30T19:01:33.534Z,75.45
2018-01-30T19:04:00.989Z,75.84
2018-01-30T19:06:28.418Z,76.59
2018-01-30T19:08:55.850Z,76.84
2018-01-30T19:11:23.256Z,76.65
2018-01-30T19:13:50.649Z,76.77
2018-01-30T19:16:18.044Z,77.34
2018-01-30T19:18:45.443Z,77.83
2018-01-30T19:21:12.891Z,77.62
2018-01-30T19:23:40.334Z,77.75
2018-01-30T19:26:07.722Z,77.62
2018-01-30T19:28:35.170Z,77.18
2018-01-30T19:31:02.586Z,77.12
2018-01-30T19:33:29.995Z,77.67
2018-01-30T19:35:57.387Z,77.43
2018-01-30T19:38:24.786Z,77.50
2018-01-30T19:40:52.175Z,77.08
2018-01-30T19:43:19.597Z,77.03
2018-01-30T19:45:46.990Z,77.36
2018-01-30T19:48:14.475Z,76.87
2018-01-30T19:50:41.889Z,77.26
2018-01-30T19:53:09.286Z,77.74
2018-01-30T19:55:36.683Z,77.33
2018-01-30T19:58:04.096Z,77.80
2018-01-30T20:00:31.489Z,77.65
2018-01-30T20:02:58.890Z,78.27
2018-01-30T20:05:26.282Z,78.62
2018-01-30T20:07:53.702Z,78.14
2018-01-30T20:10:21.094Z,78.53
2018-01-30T20:12:48.507Z,78.54
2018-01-30T20:15:15.910Z,78.17
2018-01-30T20:17:43.315Z,78.71
2018-01-30T20:20:10.730Z,79.60
2018-01-30T20:22:38.132Z,79.83
2018-01-30T20:25:05.609Z,79.60
2018-01-30T20:27:33.001Z,79.65
2018-01-30T20:30:00.402Z,79.67
2018-01-30T20:32:27.805Z,80.32
2018-01-30T20:34:55.242Z,80.35
2018-01-30T20:37:22.659Z,79.84
2018-01-30T20:39:50.058Z,79.79
2018-01-30T20:42:17.454Z,79.78
2018-01-30T20:44:44.853Z,80.49
2018-01-30T20:47:12.330Z,80.32
2018-01-30T20:49:39.722Z,81.40
2018-01-30T20:52:07.139Z,81.03
2018-01-30T20:54:34.542Z,81.01
2018-01-30T20:57:01.930Z,81.00
2018-01-30T20:59:29.339Z,80.79
2018-01-30T21:01:56.762Z,80.82
2018-01-30T21:04:24.213Z,81.37
2018-01-30T21:06:51.630Z,80.55
2018-01-30T21:09:19.161Z,80.76
2018-01-30T21:11:46.546Z,80.83
2018-01-30T21:14:13.963Z,81.12
2018-01-30T21:16:41.353Z,81.20
2018-01-30T21:19:08.767Z,81.86
2018-01-30T21:21:36.158Z,81.46
2018-01-30T21:24:03.555Z,81.58
2018-01-30T21:26:30.983Z,81.45
2018-01-30T21:28:58.382Z,81.04
2018-01-30T21:31:25.791Z,80.64
2018-01-30T21:33:53.191Z,80.99
2018-01-30T21:36:20.599Z,81.50
2018-01-30T21:38:48.026Z,80.92
2018-01-30T21:41:15.428Z,80.50
2018-01-30T21:43:42.834Z,80.25
2018-01-30T21:46:10.234Z,80.97
2018-01-30T21:48:37.710Z,80.86
2018-01-30T21:51:05.091Z,81.35
2018-01-30T21:53:32.493Z,80.97
2018-01-30T21:55:59.891Z,81.01
2018-01-30T21:58:27.290Z,81.20
2018-01-30T22:00:54.787Z,81.35
2018-01-30T22:03:22.180Z,80.86
2018-01-30T22:05:49.575Z,81.20
2018-01-30T22:08:17.051Z,80.79
2018-01-30T22:10:44.468Z,80.60
2018-01-30T22:13:11.979Z,81.20
2018-01-30T22:15:39.379Z,81.11
2018-01-30T22:18:06.786Z,81.24
2018-01-30T22:20:34.186Z,80.99
2018-01-30T22:23:01.670Z,81.01
2018-01-30T22:25:29.081Z,81.27
2018-01-30T22:27:56.477Z,81.54
2018-01-30T22:30:23.950Z,81.49
2018-01-30T22:32:51.386Z,81.22
2018-01-30T22:35:18.801Z,80.84
2018-01-30T22:37:46.206Z,80.67
2018-01-30T22:40:13.621Z,80.10
2018-01-30T22:42:41.002Z,80.39
2018-01-30T22:45:08.410Z,81.00
